sensor_id;sensor_type;location;lat;lon;timestamp;P1;durP1;ratioP1;P2;durP2;ratioP2
40729;SDS011;26418;50.070;8.436;2023-08-24T00:01:33;5.97;;;1.98;;
40729;SDS011;26418;50.070;8.436;2023-08-24T00:03:58;4.80;;;2.33;;
40729;SDS011;26418;50.070;8.436;2023-08-24T00:06:24;5.65;;;2.42;;
40729;SDS011;26418;50.070;8.436;2023-08-24T00:08:49;5.68;;;2.28;;
40729;SDS011;26418;50.070;8.436;2023-08-24T00:11:15;3.08;;;2.03;;
40729;SDS011;26418;50.070;8.436;2023-08-24T00:13:41;5.53;;;1.98;;
40729;SDS011;26418;50.070;8.436;2023-08-24T00:16:13;4.32;;;2.53;;
40729;SDS011;26418;50.070;8.436;2023-08-24T00:18:40;3.38;;;2.28;;
40729;SDS011;26418;50.070;8.436;2023-08-24T00:21:06;4.53;;;1.77;;
40729;SDS011;26418;50.070;8.436;2023-08-24T00:23:32;3.78;;;2.20;;
40729;SDS011;26418;50.070;8.436;2023-08-24T00:25:58;3.95;;;1.80;;
40729;SDS011;26418;50.070;8.436;2023-08-24T00:28:25;5.38;;;1.92;;
40729;SDS011;26418;50.070;8.436;2023-08-24T00:30:51;3.97;;;2.25;;
40729;SDS011;26418;50.070;8.436;2023-08-24T00:33:16;2.25;;;1.85;;
40729;SDS011;26418;50.070;8.436;2023-08-24T00:35:42;2.80;;;1.45;;
40729;SDS011;26418;50.070;8.436;2023-08-24T00:38:07;3.22;;;1.83;;
40729;SDS011;26418;50.070;8.436;2023-08-24T00:40:33;2.53;;;1.83;;
40729;SDS011;26418;50.070;8.436;2023-08-24T00:42:59;3.45;;;1.98;;
40729;SDS011;26418;50.070;8.436;2023-08-24T00:45:25;3.97;;;2.38;;
40729;SDS011;26418;50.070;8.436;2023-08-24T00:47:50;5.55;;;2.42;;
40729;SDS011;26418;50.070;8.436;2023-08-24T00:50:17;3.85;;;2.13;;
40729;SDS011;26418;50.070;8.436;2023-08-24T00:52:43;4.75;;;2.30;;
40729;SDS011;26418;50.070;8.436;2023-08-24T00:55:10;3.17;;;1.85;;
40729;SDS011;26418;50.070;8.436;2023-08-24T00:57:36;3.28;;;1.77;;
40729;SDS011;26418;50.070;8.436;2023-08-24T01:00:03;7.18;;;2.33;;
40729;SDS011;26418;50.070;8.436;2023-08-24T01:02:31;2.95;;;1.92;;
40729;SDS011;26418;50.070;8.436;2023-08-24T01:04:58;4.97;;;2.38;;
40729;SDS011;26418;50.070;8.436;2023-08-24T01:07:24;4.18;;;2.03;;
40729;SDS011;26418;50.070;8.436;2023-08-24T01:09:50;3.08;;;1.95;;
40729;SDS011;26418;50.070;8.436;2023-08-24T01:12:36;2.33;;;1.52;;
40729;SDS011;26418;50.070;8.436;2023-08-24T01:18:05;6.72;;;2.20;;
40729;SDS011;26418;50.070;8.436;2023-08-24T01:20:34;6.10;;;2.00;;
40729;SDS011;26418;50.070;8.436;2023-08-24T01:28:14;2.65;;;2.00;;
40729;SDS011;26418;50.070;8.436;2023-08-24T01:30:41;3.22;;;1.45;;
40729;SDS011;26418;50.070;8.436;2023-08-24T01:33:09;2.22;;;1.60;;
40729;SDS011;26418;50.070;8.436;2023-08-24T01:35:37;2.38;;;1.80;;
40729;SDS011;26418;50.070;8.436;2023-08-24T01:38:04;4.50;;;2.13;;
40729;SDS011;26418;50.070;8.436;2023-08-24T01:43:31;4.47;;;2.47;;
40729;SDS011;26418;50.070;8.436;2023-08-24T01:46:03;4.90;;;2.17;;
40729;SDS011;26418;50.070;8.436;2023-08-24T01:48:30;4.93;;;2.03;;
40729;SDS011;26418;50.070;8.436;2023-08-24T01:50:57;3.20;;;2.03;;
40729;SDS011;26418;50.070;8.436;2023-08-24T01:53:23;5.70;;;1.58;;
40729;SDS011;26418;50.070;8.436;2023-08-24T01:55:50;4.53;;;2.33;;
40729;SDS011;26418;50.070;8.436;2023-08-24T01:58:16;3.92;;;1.88;;
40729;SDS011;26418;50.070;8.436;2023-08-24T02:00:41;5.22;;;1.92;;
40729;SDS011;26418;50.070;8.436;2023-08-24T02:03:07;2.63;;;2.10;;
40729;SDS011;26418;50.070;8.436;2023-08-24T02:05:33;2.15;;;1.55;;
40729;SDS011;26418;50.070;8.436;2023-08-24T02:07:58;5.68;;;1.92;;
40729;SDS011;26418;50.070;8.436;2023-08-24T02:10:25;4.65;;;1.88;;
40729;SDS011;26418;50.070;8.436;2023-08-24T02:12:51;3.08;;;2.17;;
40729;SDS011;26418;50.070;8.436;2023-08-24T02:15:17;3.47;;;2.85;;
40729;SDS011;26418;50.070;8.436;2023-08-24T02:17:43;5.03;;;1.90;;
40729;SDS011;26418;50.070;8.436;2023-08-24T02:20:09;3.33;;;2.10;;
40729;SDS011;26418;50.070;8.436;2023-08-24T02:22:36;2.72;;;2.20;;
40729;SDS011;26418;50.070;8.436;2023-08-24T02:25:02;4.05;;;2.10;;
40729;SDS011;26418;50.070;8.436;2023-08-24T02:27:30;3.42;;;2.00;;
40729;SDS011;26418;50.070;8.436;2023-08-24T02:29:56;5.47;;;2.28;;
40729;SDS011;26418;50.070;8.436;2023-08-24T02:32:22;5.53;;;2.42;;
40729;SDS011;26418;50.070;8.436;2023-08-24T02:34:47;4.53;;;2.42;;
40729;SDS011;26418;50.070;8.436;2023-08-24T02:37:13;4.15;;;1.88;;
40729;SDS011;26418;50.070;8.436;2023-08-24T02:39:38;3.33;;;2.35;;
40729;SDS011;26418;50.070;8.436;2023-08-24T02:42:04;4.35;;;2.03;;
40729;SDS011;26418;50.070;8.436;2023-08-24T02:44:30;6.78;;;2.38;;
40729;SDS011;26418;50.070;8.436;2023-08-24T02:46:56;4.72;;;2.30;;
40729;SDS011;26418;50.070;8.436;2023-08-24T02:49:22;3.63;;;2.05;;
40729;SDS011;26418;50.070;8.436;2023-08-24T02:51:48;4.97;;;2.50;;
40729;SDS011;26418;50.070;8.436;2023-08-24T02:54:14;3.80;;;2.22;;
40729;SDS011;26418;50.070;8.436;2023-08-24T02:56:39;3.15;;;1.98;;
40729;SDS011;26418;50.070;8.436;2023-08-24T02:59:05;4.20;;;2.17;;
40729;SDS011;26418;50.070;8.436;2023-08-24T03:01:31;3.00;;;2.13;;
40729;SDS011;26418;50.070;8.436;2023-08-24T03:03:56;4.32;;;2.03;;
40729;SDS011;26418;50.070;8.436;2023-08-24T03:06:22;4.82;;;2.28;;
40729;SDS011;26418;50.070;8.436;2023-08-24T03:08:51;3.42;;;2.33;;
40729;SDS011;26418;50.070;8.436;2023-08-24T03:11:17;3.15;;;1.95;;
40729;SDS011;26418;50.070;8.436;2023-08-24T03:13:42;5.03;;;2.60;;
40729;SDS011;26418;50.070;8.436;2023-08-24T03:16:08;6.30;;;2.80;;
40729;SDS011;26418;50.070;8.436;2023-08-24T03:18:34;5.65;;;2.40;;
40729;SDS011;26418;50.070;8.436;2023-08-24T03:21:00;3.25;;;2.60;;
40729;SDS011;26418;50.070;8.436;2023-08-24T03:23:26;7.25;;;2.42;;
40729;SDS011;26418;50.070;8.436;2023-08-24T03:25:51;4.72;;;2.50;;
40729;SDS011;26418;50.070;8.436;2023-08-24T03:28:18;3.15;;;2.25;;
40729;SDS011;26418;50.070;8.436;2023-08-24T03:30:47;4.22;;;2.42;;
40729;SDS011;26418;50.070;8.436;2023-08-24T03:33:16;3.38;;;2.35;;
40729;SDS011;26418;50.070;8.436;2023-08-24T03:35:42;5.82;;;2.15;;
40729;SDS011;26418;50.070;8.436;2023-08-24T03:38:07;4.95;;;2.83;;
40729;SDS011;26418;50.070;8.436;2023-08-24T03:40:33;4.65;;;2.63;;
40729;SDS011;26418;50.070;8.436;2023-08-24T03:43:00;4.70;;;3.08;;
40729;SDS011;26418;50.070;8.436;2023-08-24T03:45:27;5.20;;;2.85;;
40729;SDS011;26418;50.070;8.436;2023-08-24T03:47:53;3.95;;;2.25;;
40729;SDS011;26418;50.070;8.436;2023-08-24T03:50:20;3.63;;;2.72;;
40729;SDS011;26418;50.070;8.436;2023-08-24T03:52:46;3.25;;;2.53;;
40729;SDS011;26418;50.070;8.436;2023-08-24T03:55:12;3.65;;;2.60;;
40729;SDS011;26418;50.070;8.436;2023-08-24T03:57:37;5.28;;;2.85;;
40729;SDS011;26418;50.070;8.436;2023-08-24T04:00:03;6.55;;;2.40;;
40729;SDS011;26418;50.070;8.436;2023-08-24T04:02:32;3.58;;;2.55;;
40729;SDS011;26418;50.070;8.436;2023-08-24T04:04:58;7.05;;;3.17;;
40729;SDS011;26418;50.070;8.436;2023-08-24T04:07:23;5.18;;;2.67;;
40729;SDS011;26418;50.070;8.436;2023-08-24T04:09:49;4.65;;;3.15;;
40729;SDS011;26418;50.070;8.436;2023-08-24T04:12:14;4.47;;;2.78;;
40729;SDS011;26418;50.070;8.436;2023-08-24T04:14:40;7.20;;;3.28;;
40729;SDS011;26418;50.070;8.436;2023-08-24T04:17:05;4.40;;;2.85;;
40729;SDS011;26418;50.070;8.436;2023-08-24T04:19:31;8.93;;;3.22;;
40729;SDS011;26418;50.070;8.436;2023-08-24T04:21:57;3.95;;;2.85;;
40729;SDS011;26418;50.070;8.436;2023-08-24T04:24:22;4.40;;;3.05;;
40729;SDS011;26418;50.070;8.436;2023-08-24T04:26:50;4.10;;;2.70;;
40729;SDS011;26418;50.070;8.436;2023-08-24T04:29:16;5.65;;;2.78;;
40729;SDS011;26418;50.070;8.436;2023-08-24T04:31:42;8.40;;;3.33;;
40729;SDS011;26418;50.070;8.436;2023-08-24T04:34:07;7.00;;;3.25;;
40729;SDS011;26418;50.070;8.436;2023-08-24T04:36:34;5.72;;;2.88;;
40729;SDS011;26418;50.070;8.436;2023-08-24T04:38:59;4.72;;;2.60;;
40729;SDS011;26418;50.070;8.436;2023-08-24T04:41:25;7.43;;;2.70;;
40729;SDS011;26418;50.070;8.436;2023-08-24T04:43:52;5.18;;;3.03;;
40729;SDS011;26418;50.070;8.436;2023-08-24T04:46:17;3.42;;;2.83;;
40729;SDS011;26418;50.070;8.436;2023-08-24T04:48:43;5.40;;;3.42;;
40729;SDS011;26418;50.070;8.436;2023-08-24T04:51:08;6.85;;;2.95;;
40729;SDS011;26418;50.070;8.436;2023-08-24T04:53:34;10.20;;;2.72;;
40729;SDS011;26418;50.070;8.436;2023-08-24T04:56:00;7.70;;;2.80;;
40729;SDS011;26418;50.070;8.436;2023-08-24T04:58:25;5.32;;;2.30;;
40729;SDS011;26418;50.070;8.436;2023-08-24T05:00:51;4.50;;;2.42;;
40729;SDS011;26418;50.070;8.436;2023-08-24T05:03:17;5.80;;;2.75;;
40729;SDS011;26418;50.070;8.436;2023-08-24T05:05:43;8.82;;;2.70;;
40729;SDS011;26418;50.070;8.436;2023-08-24T05:08:09;3.90;;;2.50;;
40729;SDS011;26418;50.070;8.436;2023-08-24T05:10:35;3.88;;;2.25;;
40729;SDS011;26418;50.070;8.436;2023-08-24T05:13:01;3.60;;;2.63;;
40729;SDS011;26418;50.070;8.436;2023-08-24T05:15:27;3.58;;;2.30;;
40729;SDS011;26418;50.070;8.436;2023-08-24T05:17:53;3.90;;;2.15;;
40729;SDS011;26418;50.070;8.436;2023-08-24T05:20:20;5.68;;;3.05;;
40729;SDS011;26418;50.070;8.436;2023-08-24T05:22:46;6.13;;;2.78;;
40729;SDS011;26418;50.070;8.436;2023-08-24T05:25:12;3.45;;;2.58;;
40729;SDS011;26418;50.070;8.436;2023-08-24T05:27:37;4.32;;;2.58;;
40729;SDS011;26418;50.070;8.436;2023-08-24T05:30:04;4.22;;;2.67;;
40729;SDS011;26418;50.070;8.436;2023-08-24T05:32:30;8.23;;;3.08;;
40729;SDS011;26418;50.070;8.436;2023-08-24T05:34:56;4.72;;;2.80;;
40729;SDS011;26418;50.070;8.436;2023-08-24T05:37:21;3.60;;;2.88;;
40729;SDS011;26418;50.070;8.436;2023-08-24T05:39:47;6.35;;;3.33;;
40729;SDS011;26418;50.070;8.436;2023-08-24T05:42:13;5.82;;;3.05;;
40729;SDS011;26418;50.070;8.436;2023-08-24T05:44:38;5.88;;;3.22;;
40729;SDS011;26418;50.070;8.436;2023-08-24T05:47:04;6.28;;;3.50;;
40729;SDS011;26418;50.070;8.436;2023-08-24T05:49:30;4.10;;;3.22;;
40729;SDS011;26418;50.070;8.436;2023-08-24T05:51:55;9.20;;;3.50;;
40729;SDS011;26418;50.070;8.436;2023-08-24T05:54:21;4.50;;;3.15;;
40729;SDS011;26418;50.070;8.436;2023-08-24T05:56:46;9.57;;;3.88;;
40729;SDS011;26418;50.070;8.436;2023-08-24T05:59:13;4.53;;;2.88;;
40729;SDS011;26418;50.070;8.436;2023-08-24T06:01:39;7.45;;;3.05;;
40729;SDS011;26418;50.070;8.436;2023-08-24T06:04:06;4.88;;;2.85;;
40729;SDS011;26418;50.070;8.436;2023-08-24T06:06:32;5.32;;;2.85;;
40729;SDS011;26418;50.070;8.436;2023-08-24T06:08:58;2.50;;;2.28;;
40729;SDS011;26418;50.070;8.436;2023-08-24T06:11:23;4.13;;;2.67;;
40729;SDS011;26418;50.070;8.436;2023-08-24T06:13:49;3.83;;;2.92;;
40729;SDS011;26418;50.070;8.436;2023-08-24T06:16:17;5.70;;;2.85;;
40729;SDS011;26418;50.070;8.436;2023-08-24T06:18:42;4.22;;;3.05;;
40729;SDS011;26418;50.070;8.436;2023-08-24T06:21:08;4.60;;;2.63;;
40729;SDS011;26418;50.070;8.436;2023-08-24T06:23:33;4.53;;;3.20;;
40729;SDS011;26418;50.070;8.436;2023-08-24T06:25:59;10.18;;;2.83;;
40729;SDS011;26418;50.070;8.436;2023-08-24T06:28:26;6.72;;;2.92;;
40729;SDS011;26418;50.070;8.436;2023-08-24T06:30:52;6.45;;;3.15;;
40729;SDS011;26418;50.070;8.436;2023-08-24T06:33:19;5.95;;;3.92;;
40729;SDS011;26418;50.070;8.436;2023-08-24T06:35:45;6.90;;;3.10;;
40729;SDS011;26418;50.070;8.436;2023-08-24T06:38:11;4.78;;;3.58;;
40729;SDS011;26418;50.070;8.436;2023-08-24T06:40:36;7.93;;;3.58;;
40729;SDS011;26418;50.070;8.436;2023-08-24T06:43:02;7.25;;;3.25;;
40729;SDS011;26418;50.070;8.436;2023-08-24T06:45:28;5.68;;;3.58;;
40729;SDS011;26418;50.070;8.436;2023-08-24T06:47:53;5.32;;;3.40;;
40729;SDS011;26418;50.070;8.436;2023-08-24T06:50:19;8.07;;;3.58;;
40729;SDS011;26418;50.070;8.436;2023-08-24T06:52:45;4.78;;;3.20;;
40729;SDS011;26418;50.070;8.436;2023-08-24T06:55:11;5.53;;;3.35;;
40729;SDS011;26418;50.070;8.436;2023-08-24T06:57:37;6.00;;;3.38;;
40729;SDS011;26418;50.070;8.436;2023-08-24T07:00:03;8.07;;;3.53;;
40729;SDS011;26418;50.070;8.436;2023-08-24T07:02:34;4.85;;;3.58;;
40729;SDS011;26418;50.070;8.436;2023-08-24T07:05:01;8.18;;;3.90;;
40729;SDS011;26418;50.070;8.436;2023-08-24T07:07:29;8.73;;;4.00;;
40729;SDS011;26418;50.070;8.436;2023-08-24T07:09:55;7.65;;;3.88;;
40729;SDS011;26418;50.070;8.436;2023-08-24T07:12:21;7.18;;;4.20;;
40729;SDS011;26418;50.070;8.436;2023-08-24T07:14:46;5.70;;;3.55;;
40729;SDS011;26418;50.070;8.436;2023-08-24T07:17:12;8.55;;;3.50;;
40729;SDS011;26418;50.070;8.436;2023-08-24T07:19:38;6.88;;;3.58;;
40729;SDS011;26418;50.070;8.436;2023-08-24T07:22:03;5.38;;;3.08;;
40729;SDS011;26418;50.070;8.436;2023-08-24T07:24:29;5.72;;;3.22;;
40729;SDS011;26418;50.070;8.436;2023-08-24T07:26:56;4.50;;;3.80;;
40729;SDS011;26418;50.070;8.436;2023-08-24T07:29:22;5.15;;;3.22;;
40729;SDS011;26418;50.070;8.436;2023-08-24T07:31:48;4.47;;;2.95;;
40729;SDS011;26418;50.070;8.436;2023-08-24T07:34:14;5.05;;;3.55;;
40729;SDS011;26418;50.070;8.436;2023-08-24T07:36:40;10.43;;;4.03;;
40729;SDS011;26418;50.070;8.436;2023-08-24T07:39:07;5.10;;;3.55;;
40729;SDS011;26418;50.070;8.436;2023-08-24T07:41:33;5.53;;;3.03;;
40729;SDS011;26418;50.070;8.436;2023-08-24T07:43:59;5.13;;;2.75;;
40729;SDS011;26418;50.070;8.436;2023-08-24T07:46:24;6.45;;;3.40;;
40729;SDS011;26418;50.070;8.436;2023-08-24T07:48:50;6.72;;;3.70;;
40729;SDS011;26418;50.070;8.436;2023-08-24T07:51:15;8.05;;;3.13;;
40729;SDS011;26418;50.070;8.436;2023-08-24T07:53:41;6.07;;;3.55;;
40729;SDS011;26418;50.070;8.436;2023-08-24T07:56:06;8.32;;;3.65;;
40729;SDS011;26418;50.070;8.436;2023-08-24T07:58:32;6.82;;;4.00;;
40729;SDS011;26418;50.070;8.436;2023-08-24T08:00:58;6.78;;;4.13;;
40729;SDS011;26418;50.070;8.436;2023-08-24T08:03:25;11.18;;;4.07;;
40729;SDS011;26418;50.070;8.436;2023-08-24T08:05:51;7.07;;;4.03;;
40729;SDS011;26418;50.070;8.436;2023-08-24T08:08:16;7.40;;;3.55;;
40729;SDS011;26418;50.070;8.436;2023-08-24T08:10:42;6.90;;;4.47;;
40729;SDS011;26418;50.070;8.436;2023-08-24T08:13:08;6.93;;;4.05;;
40729;SDS011;26418;50.070;8.436;2023-08-24T08:15:36;10.32;;;3.75;;
40729;SDS011;26418;50.070;8.436;2023-08-24T08:18:03;6.65;;;3.60;;
40729;SDS011;26418;50.070;8.436;2023-08-24T08:20:30;12.38;;;4.57;;
40729;SDS011;26418;50.070;8.436;2023-08-24T08:22:56;6.38;;;3.90;;
40729;SDS011;26418;50.070;8.436;2023-08-24T08:25:21;4.18;;;3.75;;
40729;SDS011;26418;50.070;8.436;2023-08-24T08:27:47;4.60;;;3.42;;
40729;SDS011;26418;50.070;8.436;2023-08-24T08:30:13;6.65;;;4.28;;
40729;SDS011;26418;50.070;8.436;2023-08-24T08:32:40;8.70;;;4.90;;
40729;SDS011;26418;50.070;8.436;2023-08-24T08:35:06;7.35;;;5.07;;
40729;SDS011;26418;50.070;8.436;2023-08-24T08:37:32;8.38;;;4.30;;
40729;SDS011;26418;50.070;8.436;2023-08-24T08:39:58;7.10;;;4.68;;
40729;SDS011;26418;50.070;8.436;2023-08-24T08:42:23;6.53;;;4.07;;
40729;SDS011;26418;50.070;8.436;2023-08-24T08:44:49;4.30;;;3.58;;
40729;SDS011;26418;50.070;8.436;2023-08-24T08:47:15;4.43;;;3.80;;
40729;SDS011;26418;50.070;8.436;2023-08-24T08:49:43;8.18;;;3.78;;
40729;SDS011;26418;50.070;8.436;2023-08-24T08:52:09;4.60;;;3.47;;
40729;SDS011;26418;50.070;8.436;2023-08-24T08:54:35;7.20;;;4.30;;
40729;SDS011;26418;50.070;8.436;2023-08-24T08:57:01;8.13;;;4.03;;
40729;SDS011;26418;50.070;8.436;2023-08-24T08:59:30;7.60;;;4.85;;
40729;SDS011;26418;50.070;8.436;2023-08-24T09:01:57;11.18;;;4.40;;
40729;SDS011;26418;50.070;8.436;2023-08-24T09:04:26;7.97;;;4.20;;
40729;SDS011;26418;50.070;8.436;2023-08-24T09:06:54;6.68;;;4.85;;
40729;SDS011;26418;50.070;8.436;2023-08-24T09:09:21;10.73;;;5.13;;
40729;SDS011;26418;50.070;8.436;2023-08-24T09:11:48;8.13;;;4.78;;
40729;SDS011;26418;50.070;8.436;2023-08-24T09:14:13;8.88;;;3.90;;
40729;SDS011;26418;50.070;8.436;2023-08-24T09:16:40;11.15;;;4.78;;
40729;SDS011;26418;50.070;8.436;2023-08-24T09:19:10;6.07;;;4.28;;
40729;SDS011;26418;50.070;8.436;2023-08-24T09:21:37;6.65;;;4.07;;
40729;SDS011;26418;50.070;8.436;2023-08-24T09:24:05;6.22;;;3.85;;
40729;SDS011;26418;50.070;8.436;2023-08-24T09:26:33;3.67;;;3.25;;
40729;SDS011;26418;50.070;8.436;2023-08-24T09:29:00;9.15;;;3.90;;
40729;SDS011;26418;50.070;8.436;2023-08-24T09:31:36;5.25;;;3.53;;
40729;SDS011;26418;50.070;8.436;2023-08-24T09:34:03;6.55;;;3.80;;
40729;SDS011;26418;50.070;8.436;2023-08-24T09:36:32;5.40;;;3.67;;
40729;SDS011;26418;50.070;8.436;2023-08-24T09:38:59;7.70;;;3.58;;
40729;SDS011;26418;50.070;8.436;2023-08-24T09:41:38;9.55;;;3.80;;
40729;SDS011;26418;50.070;8.436;2023-08-24T09:44:09;8.18;;;3.25;;
40729;SDS011;26418;50.070;8.436;2023-08-24T09:46:35;8.68;;;3.72;;
40729;SDS011;26418;50.070;8.436;2023-08-24T09:49:05;3.92;;;3.20;;
40729;SDS011;26418;50.070;8.436;2023-08-24T09:51:31;8.20;;;2.50;;
40729;SDS011;26418;50.070;8.436;2023-08-24T09:53:58;6.13;;;2.95;;
40729;SDS011;26418;50.070;8.436;2023-08-24T09:56:31;4.75;;;3.00;;
40729;SDS011;26418;50.070;8.436;2023-08-24T09:59:14;8.02;;;2.95;;
40729;SDS011;26418;50.070;8.436;2023-08-24T10:01:47;6.72;;;3.40;;
40729;SDS011;26418;50.070;8.436;2023-08-24T10:04:17;9.45;;;3.17;;
40729;SDS011;26418;50.070;8.436;2023-08-24T10:06:49;6.60;;;2.80;;
40729;SDS011;26418;50.070;8.436;2023-08-24T10:09:53;5.07;;;2.90;;
40729;SDS011;26418;50.070;8.436;2023-08-24T10:12:24;4.07;;;2.35;;
40729;SDS011;26418;50.070;8.436;2023-08-24T10:14:56;4.47;;;2.72;;
40729;SDS011;26418;50.070;8.436;2023-08-24T10:17:26;6.03;;;3.53;;
40729;SDS011;26418;50.070;8.436;2023-08-24T10:19:52;3.28;;;2.58;;
40729;SDS011;26418;50.070;8.436;2023-08-24T10:22:21;10.60;;;3.10;;
40729;SDS011;26418;50.070;8.436;2023-08-24T10:24:47;6.07;;;2.92;;
40729;SDS011;26418;50.070;8.436;2023-08-24T10:27:13;6.07;;;2.97;;
40729;SDS011;26418;50.070;8.436;2023-08-24T10:29:39;5.47;;;2.90;;
40729;SDS011;26418;50.070;8.436;2023-08-24T10:32:05;4.70;;;3.03;;
40729;SDS011;26418;50.070;8.436;2023-08-24T10:34:33;8.60;;;3.25;;
40729;SDS011;26418;50.070;8.436;2023-08-24T10:37:06;6.05;;;2.85;;
40729;SDS011;26418;50.070;8.436;2023-08-24T10:39:36;5.07;;;2.88;;
40729;SDS011;26418;50.070;8.436;2023-08-24T10:42:05;5.55;;;3.35;;
40729;SDS011;26418;50.070;8.436;2023-08-24T10:44:36;4.17;;;2.90;;
40729;SDS011;26418;50.070;8.436;2023-08-24T10:47:07;4.47;;;3.05;;
40729;SDS011;26418;50.070;8.436;2023-08-24T10:49:33;6.05;;;3.33;;
40729;SDS011;26418;50.070;8.436;2023-08-24T10:52:16;6.75;;;2.78;;
40729;SDS011;26418;50.070;8.436;2023-08-24T10:54:43;5.60;;;3.30;;
40729;SDS011;26418;50.070;8.436;2023-08-24T10:57:16;2.83;;;2.60;;
40729;SDS011;26418;50.070;8.436;2023-08-24T11:00:12;3.97;;;2.53;;
40729;SDS011;26418;50.070;8.436;2023-08-24T11:02:45;3.50;;;3.05;;
40729;SDS011;26418;50.070;8.436;2023-08-24T11:05:16;4.32;;;2.90;;
40729;SDS011;26418;50.070;8.436;2023-08-24T11:07:49;6.18;;;3.47;;
40729;SDS011;26418;50.070;8.436;2023-08-24T11:10:20;6.90;;;3.00;;
40729;SDS011;26418;50.070;8.436;2023-08-24T11:15:51;6.20;;;3.10;;
40729;SDS011;26418;50.070;8.436;2023-08-24T11:20:53;3.92;;;2.90;;
40729;SDS011;26418;50.070;8.436;2023-08-24T11:23:21;4.82;;;2.90;;
40729;SDS011;26418;50.070;8.436;2023-08-24T11:25:48;6.78;;;3.20;;
40729;SDS011;26418;50.070;8.436;2023-08-24T11:28:19;5.30;;;3.60;;
40729;SDS011;26418;50.070;8.436;2023-08-24T11:30:46;6.78;;;3.10;;
40729;SDS011;26418;50.070;8.436;2023-08-24T11:33:12;6.80;;;3.35;;
40729;SDS011;26418;50.070;8.436;2023-08-24T11:35:44;6.00;;;3.55;;
40729;SDS011;26418;50.070;8.436;2023-08-24T11:38:10;5.53;;;3.45;;
40729;SDS011;26418;50.070;8.436;2023-08-24T11:40:36;7.18;;;2.97;;
40729;SDS011;26418;50.070;8.436;2023-08-24T11:43:02;4.45;;;3.80;;
40729;SDS011;26418;50.070;8.436;2023-08-24T11:45:32;6.75;;;3.83;;
40729;SDS011;26418;50.070;8.436;2023-08-24T11:48:01;6.43;;;3.88;;
40729;SDS011;26418;50.070;8.436;2023-08-24T11:50:29;5.13;;;3.97;;
40729;SDS011;26418;50.070;8.436;2023-08-24T11:52:55;7.45;;;3.88;;
40729;SDS011;26418;50.070;8.436;2023-08-24T11:55:22;4.18;;;3.30;;
40729;SDS011;26418;50.070;8.436;2023-08-24T11:57:48;6.13;;;3.58;;
40729;SDS011;26418;50.070;8.436;2023-08-24T12:00:14;3.92;;;3.53;;
40729;SDS011;26418;50.070;8.436;2023-08-24T12:02:41;5.70;;;3.60;;
40729;SDS011;26418;50.070;8.436;2023-08-24T12:05:07;4.45;;;3.80;;
40729;SDS011;26418;50.070;8.436;2023-08-24T12:07:45;4.13;;;3.33;;
40729;SDS011;26418;50.070;8.436;2023-08-24T12:10:11;5.82;;;3.70;;
40729;SDS011;26418;50.070;8.436;2023-08-24T12:12:37;4.95;;;3.65;;
40729;SDS011;26418;50.070;8.436;2023-08-24T12:15:03;4.75;;;3.88;;
40729;SDS011;26418;50.070;8.436;2023-08-24T12:17:29;4.28;;;3.45;;
40729;SDS011;26418;50.070;8.436;2023-08-24T12:19:58;6.22;;;3.63;;
40729;SDS011;26418;50.070;8.436;2023-08-24T12:22:25;5.97;;;3.42;;
40729;SDS011;26418;50.070;8.436;2023-08-24T12:24:51;5.47;;;3.75;;
40729;SDS011;26418;50.070;8.436;2023-08-24T12:27:17;5.32;;;3.58;;
40729;SDS011;26418;50.070;8.436;2023-08-24T12:29:48;7.05;;;3.15;;
40729;SDS011;26418;50.070;8.436;2023-08-24T12:32:14;4.18;;;3.00;;
40729;SDS011;26418;50.070;8.436;2023-08-24T12:34:48;6.05;;;3.35;;
40729;SDS011;26418;50.070;8.436;2023-08-24T12:37:14;5.18;;;3.60;;
40729;SDS011;26418;50.070;8.436;2023-08-24T12:39:40;4.60;;;3.33;;
40729;SDS011;26418;50.070;8.436;2023-08-24T12:42:06;5.40;;;3.70;;
40729;SDS011;26418;50.070;8.436;2023-08-24T12:44:32;5.18;;;3.17;;
40729;SDS011;26418;50.070;8.436;2023-08-24T12:47:01;6.07;;;3.47;;
40729;SDS011;26418;50.070;8.436;2023-08-24T12:49:28;3.85;;;3.28;;
40729;SDS011;26418;50.070;8.436;2023-08-24T12:51:53;7.13;;;3.38;;
40729;SDS011;26418;50.070;8.436;2023-08-24T12:54:19;3.65;;;2.75;;
40729;SDS011;26418;50.070;8.436;2023-08-24T12:56:44;7.40;;;3.42;;
40729;SDS011;26418;50.070;8.436;2023-08-24T12:59:10;7.45;;;3.60;;
40729;SDS011;26418;50.070;8.436;2023-08-24T13:01:37;4.70;;;2.83;;
40729;SDS011;26418;50.070;8.436;2023-08-24T13:04:03;5.05;;;3.20;;
40729;SDS011;26418;50.070;8.436;2023-08-24T13:06:29;4.82;;;3.33;;
40729;SDS011;26418;50.070;8.436;2023-08-24T13:08:55;5.20;;;3.83;;
40729;SDS011;26418;50.070;8.436;2023-08-24T13:11:23;6.63;;;3.65;;
40729;SDS011;26418;50.070;8.436;2023-08-24T13:13:49;4.60;;;3.28;;
40729;SDS011;26418;50.070;8.436;2023-08-24T13:16:14;5.53;;;3.30;;
40729;SDS011;26418;50.070;8.436;2023-08-24T13:18:41;3.15;;;2.75;;
40729;SDS011;26418;50.070;8.436;2023-08-24T13:21:07;3.47;;;2.90;;
40729;SDS011;26418;50.070;8.436;2023-08-24T13:23:33;5.78;;;3.65;;
40729;SDS011;26418;50.070;8.436;2023-08-24T13:25:59;3.63;;;3.10;;
40729;SDS011;26418;50.070;8.436;2023-08-24T13:28:25;4.68;;;3.00;;
40729;SDS011;26418;50.070;8.436;2023-08-24T13:30:50;4.18;;;3.22;;
40729;SDS011;26418;50.070;8.436;2023-08-24T13:33:16;9.38;;;4.20;;
40729;SDS011;26418;50.070;8.436;2023-08-24T13:35:43;5.97;;;3.65;;
40729;SDS011;26418;50.070;8.436;2023-08-24T13:38:09;7.18;;;4.20;;
40729;SDS011;26418;50.070;8.436;2023-08-24T13:40:34;4.65;;;4.13;;
40729;SDS011;26418;50.070;8.436;2023-08-24T13:43:00;7.35;;;3.92;;
40729;SDS011;26418;50.070;8.436;2023-08-24T13:45:25;6.43;;;4.05;;
40729;SDS011;26418;50.070;8.436;2023-08-24T13:47:51;10.85;;;4.32;;
40729;SDS011;26418;50.070;8.436;2023-08-24T13:50:17;6.15;;;4.05;;
40729;SDS011;26418;50.070;8.436;2023-08-24T13:52:42;6.97;;;4.30;;
40729;SDS011;26418;50.070;8.436;2023-08-24T13:55:08;7.95;;;4.68;;
40729;SDS011;26418;50.070;8.436;2023-08-24T13:57:34;11.38;;;4.78;;
40729;SDS011;26418;50.070;8.436;2023-08-24T13:59:59;11.15;;;4.90;;
40729;SDS011;26418;50.070;8.436;2023-08-24T14:02:26;8.65;;;4.05;;
40729;SDS011;26418;50.070;8.436;2023-08-24T14:04:51;9.10;;;4.10;;
40729;SDS011;26418;50.070;8.436;2023-08-24T14:07:17;12.05;;;4.70;;
40729;SDS011;26418;50.070;8.436;2023-08-24T14:09:42;10.40;;;4.43;;
40729;SDS011;26418;50.070;8.436;2023-08-24T14:12:08;7.63;;;4.70;;
40729;SDS011;26418;50.070;8.436;2023-08-24T14:14:33;9.23;;;4.85;;
40729;SDS011;26418;50.070;8.436;2023-08-24T14:16:59;8.15;;;3.95;;
40729;SDS011;26418;50.070;8.436;2023-08-24T14:19:25;7.53;;;4.50;;
40729;SDS011;26418;50.070;8.436;2023-08-24T14:21:51;7.45;;;4.88;;
40729;SDS011;26418;50.070;8.436;2023-08-24T14:24:17;7.03;;;4.65;;
40729;SDS011;26418;50.070;8.436;2023-08-24T14:26:43;6.18;;;3.70;;
40729;SDS011;26418;50.070;8.436;2023-08-24T14:29:12;6.82;;;3.75;;
40729;SDS011;26418;50.070;8.436;2023-08-24T14:31:38;6.40;;;4.28;;
40729;SDS011;26418;50.070;8.436;2023-08-24T14:34:04;4.70;;;3.35;;
40729;SDS011;26418;50.070;8.436;2023-08-24T14:36:29;6.43;;;4.60;;
40729;SDS011;26418;50.070;8.436;2023-08-24T14:38:58;5.55;;;3.97;;
40729;SDS011;26418;50.070;8.436;2023-08-24T14:41:24;5.60;;;3.75;;
40729;SDS011;26418;50.070;8.436;2023-08-24T14:43:49;6.57;;;4.22;;
40729;SDS011;26418;50.070;8.436;2023-08-24T14:46:15;6.20;;;3.97;;
40729;SDS011;26418;50.070;8.436;2023-08-24T14:48:40;9.90;;;3.78;;
40729;SDS011;26418;50.070;8.436;2023-08-24T14:51:06;4.88;;;4.20;;
40729;SDS011;26418;50.070;8.436;2023-08-24T14:53:32;8.07;;;4.65;;
40729;SDS011;26418;50.070;8.436;2023-08-24T14:55:57;10.52;;;4.82;;
40729;SDS011;26418;50.070;8.436;2023-08-24T14:58:24;9.18;;;5.57;;
40729;SDS011;26418;50.070;8.436;2023-08-24T15:00:51;9.27;;;5.05;;
40729;SDS011;26418;50.070;8.436;2023-08-24T15:03:18;7.68;;;4.57;;